createdAt,value
2023-05-07T00:00:25.789Z,11.67
2023-05-07T00:03:14.967Z,14.63
2023-05-07T00:06:03.931Z,13.40
2023-05-07T00:08:54.007Z,11.77
2023-05-07T00:11:42.828Z,16.03
2023-05-07T00:14:31.503Z,13.33
2023-05-07T00:17:20.829Z,13.07
2023-05-07T00:20:11.107Z,15.03
2023-05-07T00:23:00.041Z,12.73
2023-05-07T00:25:50.893Z,11.90
2023-05-07T00:28:40.298Z,20.50
2023-05-07T00:31:29.081Z,11.63
2023-05-07T00:34:17.849Z,14.70
2023-05-07T00:37:08.250Z,15.27
2023-05-07T00:39:56.952Z,14.33
2023-05-07T00:42:48.137Z,12.03
2023-05-07T00:45:37.376Z,13.07
2023-05-07T00:48:27.550Z,14.40
2023-05-07T00:51:16.574Z,12.63
2023-05-07T00:54:05.879Z,10.50
2023-05-07T00:56:57.154Z,17.77
2023-05-07T00:59:47.271Z,12.27
2023-05-07T01:02:36.812Z,13.17
2023-05-07T01:05:28.221Z,11.27
2023-05-07T01:08:18.719Z,12.13
2023-05-07T01:11:08.781Z,13.33
2023-05-07T01:13:58.661Z,12.47
2023-05-07T01:16:49.068Z,12.70
2023-05-07T01:19:38.625Z,15.43
2023-05-07T01:22:35.042Z,15.30
2023-05-07T01:25:24.530Z,21.23
2023-05-07T01:28:16.280Z,13.20
2023-05-07T01:31:08.003Z,14.30
2023-05-07T01:34:01.518Z,14.03
2023-05-07T01:36:51.117Z,14.90
2023-05-07T01:39:42.447Z,12.17
2023-05-07T01:42:32.455Z,13.57
2023-05-07T01:45:21.791Z,13.90
2023-05-07T01:48:16.253Z,16.30
2023-05-07T01:51:06.273Z,13.97
2023-05-07T01:53:55.108Z,14.60
2023-05-07T01:56:45.219Z,17.13
2023-05-07T01:59:34.135Z,14.20
2023-05-07T02:02:23.166Z,18.23
2023-05-07T02:05:12.517Z,15.37
2023-05-07T02:08:02.936Z,16.60
2023-05-07T02:10:54.849Z,15.20
2023-05-07T02:13:44.921Z,16.83
2023-05-07T02:16:33.897Z,16.40
2023-05-07T02:19:23.026Z,16.00
2023-05-07T02:22:12.797Z,14.87
2023-05-07T02:25:01.490Z,13.77
2023-05-07T02:27:50.228Z,16.57
2023-05-07T02:30:41.306Z,15.33
2023-05-07T02:33:31.640Z,14.93
2023-05-07T02:36:20.916Z,19.00
2023-05-07T02:39:18.789Z,15.80
2023-05-07T02:42:07.515Z,16.60
2023-05-07T02:44:56.456Z,16.57
2023-05-07T02:47:47.416Z,22.43
2023-05-07T02:50:36.390Z,18.13
2023-05-07T02:53:26.969Z,18.10
2023-05-07T02:56:15.788Z,15.80
2023-05-07T02:59:04.560Z,18.03
2023-05-07T03:01:56.451Z,20.40
2023-05-07T03:04:46.677Z,19.10
2023-05-07T03:07:35.429Z,17.87
2023-05-07T03:10:24.297Z,18.60
2023-05-07T03:13:13.070Z,18.53
2023-05-07T03:16:02.213Z,19.03
2023-05-07T03:18:52.322Z,13.77
2023-05-07T03:21:42.505Z,17.60
2023-05-07T03:24:31.958Z,15.70
2023-05-07T03:27:20.747Z,17.40
2023-05-07T03:30:12.326Z,20.53
2023-05-07T03:33:01.441Z,19.70
2023-05-07T03:35:50.576Z,18.00
2023-05-07T03:38:44.924Z,19.47
2023-05-07T03:41:35.386Z,23.83
2023-05-07T03:44:24.292Z,22.93
2023-05-07T03:47:14.487Z,17.03
2023-05-07T03:50:03.585Z,20.60
2023-05-07T03:52:52.628Z,19.23
2023-05-07T03:55:45.421Z,21.53
2023-05-07T03:58:34.794Z,17.63
2023-05-07T04:01:28.163Z,17.73
2023-05-07T04:04:17.933Z,20.67
2023-05-07T04:07:06.700Z,18.77
2023-05-07T04:10:00.581Z,19.70
2023-05-07T04:12:50.761Z,20.33
2023-05-07T04:15:43.655Z,17.97
2023-05-07T04:18:35.280Z,17.07
2023-05-07T04:21:24.306Z,18.10
2023-05-07T04:24:14.946Z,18.07
2023-05-07T04:27:03.737Z,21.10
2023-05-07T04:29:56.724Z,19.30
2023-05-07T04:32:46.527Z,19.70
2023-05-07T04:35:35.315Z,18.40
2023-05-07T04:38:24.597Z,18.93
2023-05-07T04:41:16.076Z,15.90
2023-05-07T04:44:06.934Z,17.20
2023-05-07T04:46:58.134Z,16.70
2023-05-07T04:49:47.285Z,22.10
2023-05-07T04:52:36.194Z,14.13
2023-05-07T04:55:25.467Z,18.83
2023-05-07T04:58:14.702Z,16.37
2023-05-07T05:01:05.810Z,21.10
2023-05-07T05:03:56.110Z,17.50
2023-05-07T05:06:45.048Z,19.27
2023-05-07T05:09:35.424Z,17.40
2023-05-07T05:12:24.376Z,17.33
2023-05-07T05:15:14.654Z,17.07
2023-05-07T05:18:04.853Z,18.13
2023-05-07T05:20:56.826Z,21.90
2023-05-07T05:23:46.158Z,14.20
2023-05-07T05:26:39.449Z,17.33
2023-05-07T05:29:30.983Z,14.73
2023-05-07T05:32:22.081Z,17.40
2023-05-07T05:35:11.749Z,19.30
2023-05-07T05:38:02.417Z,16.57
2023-05-07T05:40:51.257Z,16.53
2023-05-07T05:43:42.758Z,14.63
2023-05-07T05:46:35.631Z,17.27
2023-05-07T05:49:27.180Z,17.20
2023-05-07T05:52:17.782Z,16.00
2023-05-07T05:55:09.818Z,18.40
2023-05-07T05:58:00.001Z,14.00
2023-05-07T06:00:53.282Z,15.30
2023-05-07T06:03:44.709Z,13.90
2023-05-07T06:06:38.888Z,16.63
2023-05-07T06:09:27.677Z,19.43
2023-05-07T06:12:17.829Z,16.90
2023-05-07T06:15:08.261Z,18.23
2023-05-07T06:17:58.434Z,17.13
2023-05-07T06:20:47.585Z,14.50
2023-05-07T06:23:45.602Z,17.23
2023-05-07T06:26:34.638Z,18.77
2023-05-07T06:29:26.683Z,16.20
2023-05-07T06:32:18.058Z,16.73
2023-05-07T06:35:08.413Z,16.30
2023-05-07T06:38:02.538Z,15.70
2023-05-07T06:40:58.023Z,15.20
2023-05-07T06:43:46.863Z,13.80
2023-05-07T06:46:55.040Z,14.07
2023-05-07T06:49:43.964Z,13.03
2023-05-07T06:52:37.506Z,16.23
2023-05-07T06:55:28.884Z,13.97
2023-05-07T06:58:18.356Z,17.30
2023-05-07T07:01:07.305Z,12.40
2023-05-07T07:03:58.874Z,11.90
2023-05-07T07:06:49.829Z,15.97
2023-05-07T07:09:38.889Z,12.23
2023-05-07T07:12:32.005Z,11.60
2023-05-07T07:15:22.592Z,12.40
2023-05-07T07:34:30.901Z,20.07
2023-05-07T07:37:27.927Z,14.00
2023-05-07T07:40:26.502Z,15.57
2023-05-07T07:43:25.331Z,13.00
2023-05-07T07:46:19.544Z,13.10
2023-05-07T07:49:18.654Z,14.77
2023-05-07T07:52:14.402Z,11.97
2023-05-07T07:55:14.047Z,15.73
2023-05-07T07:58:08.576Z,12.17
2023-05-07T08:01:06.331Z,15.70
2023-05-07T08:04:02.319Z,11.50
2023-05-07T08:06:57.954Z,13.83
2023-05-07T08:09:53.193Z,14.50
2023-05-07T08:12:55.733Z,13.57
2023-05-07T08:15:49.935Z,13.50
2023-05-07T08:18:43.966Z,14.60
2023-05-07T08:21:42.386Z,14.50
2023-05-07T08:24:39.022Z,13.63
2023-05-07T08:27:35.277Z,14.50
2023-05-07T08:30:34.209Z,14.07
2023-05-07T08:37:40.980Z,14.37
2023-05-07T08:41:54.158Z,13.83
2023-05-07T08:50:12.864Z,15.20
2023-05-07T08:53:34.734Z,18.00
2023-05-07T08:56:30.414Z,12.63
2023-05-07T08:59:23.922Z,15.73
2023-05-07T09:02:17.860Z,15.10
2023-05-07T09:05:15.990Z,13.13
2023-05-07T09:08:19.333Z,16.57
2023-05-07T09:11:15.094Z,11.97
2023-05-07T09:14:13.487Z,17.90
2023-05-07T09:31:43.899Z,11.87
2023-05-07T09:40:07.612Z,13.47
2023-05-07T09:52:49.633Z,11.83
2023-05-07T09:56:34.095Z,13.80
2023-05-07T10:00:07.494Z,13.00
2023-05-07T10:03:16.769Z,12.40
2023-05-07T10:06:21.354Z,14.87
2023-05-07T10:09:19.474Z,11.63
2023-05-07T10:12:14.737Z,12.73
2023-05-07T10:15:19.628Z,12.10
2023-05-07T10:18:20.596Z,11.77
2023-05-07T10:21:24.200Z,11.30
2023-05-07T10:24:31.203Z,11.10
2023-05-07T10:27:29.003Z,11.97
2023-05-07T10:30:40.529Z,11.40
2023-05-07T10:33:40.491Z,11.80
2023-05-07T10:36:41.077Z,11.77
2023-05-07T10:39:41.320Z,13.00
2023-05-07T11:08:34.340Z,12.47
2023-05-07T11:16:04.591Z,14.53
2023-05-07T11:37:59.480Z,12.00
2023-05-07T11:42:01.675Z,11.90
2023-05-07T11:50:49.858Z,11.70
2023-05-07T12:03:36.329Z,11.60
2023-05-07T12:11:53.025Z,15.60
2023-05-07T12:29:29.937Z,11.53
2023-05-07T12:36:22.827Z,9.23
2023-05-07T12:39:45.647Z,10.27
2023-05-07T12:43:01.677Z,8.93
2023-05-07T12:46:16.344Z,9.57
2023-05-07T12:49:12.996Z,9.70
2023-05-07T12:52:05.861Z,13.00
2023-05-07T12:55:34.818Z,9.77
2023-05-07T12:58:55.646Z,8.80
2023-05-07T13:02:21.443Z,9.80
2023-05-07T13:05:48.158Z,9.93
2023-05-07T13:09:04.554Z,9.97
2023-05-07T13:12:48.515Z,12.80
2023-05-07T13:19:22.561Z,9.47
2023-05-07T13:23:09.120Z,9.20
2023-05-07T13:26:24.932Z,9.90
2023-05-07T13:30:02.511Z,8.40
2023-05-07T13:33:18.760Z,9.70
2023-05-07T13:36:15.819Z,8.90
2023-05-07T13:39:35.895Z,9.93
2023-05-07T13:45:50.888Z,9.47
2023-05-07T13:48:52.658Z,9.77
2023-05-07T13:52:15.308Z,8.13
2023-05-07T13:55:10.100Z,8.03
2023-05-07T13:58:07.309Z,8.40
2023-05-07T14:01:03.429Z,8.80
2023-05-07T14:03:56.476Z,14.10
2023-05-07T14:06:55.539Z,9.20
2023-05-07T14:09:56.176Z,12.17
2023-05-07T14:12:50.441Z,12.20
2023-05-07T14:15:49.310Z,11.67
2023-05-07T14:18:50.038Z,12.37
2023-05-07T14:22:13.658Z,9.50
2023-05-07T14:27:25.398Z,11.10
2023-05-07T14:36:07.162Z,10.57
2023-05-07T14:46:21.263Z,10.60
2023-05-07T14:50:31.161Z,9.33
2023-05-07T14:58:49.537Z,12.07
2023-05-07T15:01:47.450Z,12.83
2023-05-07T15:04:58.615Z,10.40
2023-05-07T15:07:53.218Z,9.17
2023-05-07T15:10:47.465Z,10.23
2023-05-07T15:13:42.605Z,11.50
2023-05-07T15:16:37.883Z,10.93
2023-05-07T15:19:33.673Z,11.90
2023-05-07T15:22:30.955Z,11.43
2023-05-07T15:25:27.229Z,14.67
2023-05-07T15:28:21.387Z,12.33
2023-05-07T15:35:14.767Z,9.70
2023-05-07T15:38:44.355Z,10.93
2023-05-07T15:49:07.639Z,11.57
2023-05-07T16:03:52.689Z,17.67
2023-05-07T16:54:47.084Z,10.20
2023-05-07T17:02:05.757Z,12.00
2023-05-07T17:05:09.836Z,11.40
2023-05-07T17:08:07.783Z,11.20
2023-05-07T17:14:56.352Z,13.50
2023-05-07T17:17:47.170Z,16.37
2023-05-07T17:20:36.468Z,14.27
2023-05-07T17:23:25.233Z,12.60
2023-05-07T17:26:15.750Z,13.67
2023-05-07T17:29:04.897Z,12.43
2023-05-07T17:31:53.687Z,11.20
2023-05-07T17:34:42.620Z,14.20
2023-05-07T17:37:31.450Z,12.80
2023-05-07T17:40:51.250Z,12.27
2023-05-07T17:43:39.970Z,14.83
2023-05-07T17:46:28.875Z,13.37
2023-05-07T17:49:18.007Z,15.00
2023-05-07T17:52:08.683Z,16.10
2023-05-07T17:54:58.160Z,13.73
2023-05-07T17:57:48.354Z,12.67
2023-05-07T18:00:37.705Z,13.33
2023-05-07T18:03:30.718Z,13.73
2023-05-07T18:06:20.803Z,14.03
2023-05-07T18:09:09.604Z,15.67
2023-05-07T18:11:59.656Z,17.53
2023-05-07T18:14:49.771Z,18.03
2023-05-07T18:17:39.040Z,12.10
2023-05-07T18:20:27.953Z,12.37
2023-05-07T18:23:16.698Z,13.57
2023-05-07T18:26:07.815Z,16.03
2023-05-07T18:28:57.158Z,13.33
2023-05-07T18:31:50.073Z,14.40
2023-05-07T18:34:38.886Z,14.37
2023-05-07T18:37:27.854Z,16.83
2023-05-07T18:40:16.807Z,14.13
2023-05-07T18:43:07.345Z,16.20
2023-05-07T18:45:57.267Z,16.80
2023-05-07T18:48:47.860Z,15.90
2023-05-07T18:51:36.643Z,17.33
2023-05-07T18:54:31.207Z,14.73
2023-05-07T18:57:20.025Z,15.37
2023-05-07T19:00:13.042Z,15.23
2023-05-07T19:03:02.189Z,14.23
2023-05-07T19:05:52.395Z,14.57
2023-05-07T19:08:42.954Z,14.20
2023-05-07T19:11:31.850Z,15.87
2023-05-07T19:14:21.168Z,15.10
2023-05-07T19:17:10.406Z,14.37
2023-05-07T19:19:59.422Z,13.40
2023-05-07T19:22:49.654Z,15.23
2023-05-07T19:25:38.400Z,13.70
2023-05-07T19:28:27.334Z,16.30
2023-05-07T19:31:21.218Z,14.10
2023-05-07T19:34:10.123Z,14.60
2023-05-07T19:36:58.954Z,13.50
2023-05-07T19:39:49.058Z,16.43
2023-05-07T19:42:38.037Z,13.70
2023-05-07T19:45:27.056Z,21.07
2023-05-07T19:48:17.495Z,13.97
2023-05-07T19:51:09.294Z,13.40
2023-05-07T19:53:58.028Z,13.97
2023-05-07T19:56:48.455Z,12.60
2023-05-07T19:59:39.124Z,11.30
2023-05-07T20:02:28.476Z,13.30
2023-05-07T20:05:17.812Z,12.37
2023-05-07T20:08:08.283Z,14.17
2023-05-07T20:11:00.332Z,11.17
2023-05-07T20:13:50.404Z,12.60
2023-05-07T20:16:39.425Z,11.23
2023-05-07T20:19:28.476Z,12.60
2023-05-07T20:22:19.949Z,12.27
2023-05-07T20:25:12.762Z,12.90
2023-05-07T20:28:01.517Z,11.77
2023-05-07T20:30:51.760Z,14.30
2023-05-07T20:33:40.920Z,13.90
2023-05-07T20:36:29.884Z,11.83
2023-05-07T20:39:18.984Z,12.50
2023-05-07T20:42:07.838Z,11.23
2023-05-07T20:44:57.286Z,12.50
2023-05-07T20:47:47.917Z,15.07
2023-05-07T20:50:36.840Z,11.77
2023-05-07T20:53:26.123Z,13.63
2023-05-07T20:56:15.111Z,11.00
2023-05-07T20:59:03.871Z,10.37
2023-05-07T21:01:52.701Z,11.00
2023-05-07T21:04:42.909Z,13.53
2023-05-07T21:07:31.748Z,11.47
2023-05-07T21:10:20.781Z,11.50
2023-05-07T21:13:10.021Z,10.97
2023-05-07T21:15:58.842Z,11.97
2023-05-07T21:18:47.698Z,12.00
2023-05-07T21:21:37.874Z,12.20
2023-05-07T21:24:26.834Z,12.30
2023-05-07T21:27:15.718Z,11.60
2023-05-07T21:30:05.143Z,10.30
2023-05-07T21:32:56.403Z,11.83
2023-05-07T21:35:45.224Z,11.43
2023-05-07T21:38:35.408Z,12.10
2023-05-07T21:41:24.097Z,12.13
2023-05-07T21:44:12.772Z,11.80
2023-05-07T21:47:01.480Z,10.37
2023-05-07T21:49:51.889Z,10.23
2023-05-07T21:52:40.518Z,15.90
2023-05-07T21:55:30.742Z,12.93
2023-05-07T21:58:19.422Z,13.03
2023-05-07T22:01:12.277Z,11.23
2023-05-07T22:04:01.129Z,11.43
2023-05-07T22:06:50.153Z,12.57
2023-05-07T22:09:38.854Z,12.73
2023-05-07T22:12:28.930Z,11.53
2023-05-07T22:15:17.672Z,12.03
2023-05-07T22:18:06.585Z,14.47
2023-05-07T22:20:55.590Z,12.27
2023-05-07T22:23:44.243Z,12.10
2023-05-07T22:26:32.925Z,12.27
2023-05-07T22:29:23.837Z,13.17
2023-05-07T22:32:12.897Z,12.03
2023-05-07T22:35:01.801Z,11.10
2023-05-07T22:37:50.677Z,10.83
2023-05-07T22:40:39.588Z,14.07
2023-05-07T22:43:28.474Z,10.97
2023-05-07T22:46:18.562Z,13.20
2023-05-07T22:49:07.249Z,12.10
2023-05-07T22:51:55.953Z,13.27
2023-05-07T22:54:44.718Z,15.87
2023-05-07T22:57:33.415Z,12.90
2023-05-07T23:00:22.419Z,12.93
2023-05-07T23:03:12.894Z,13.40
2023-05-07T23:06:01.709Z,14.03
2023-05-07T23:08:50.429Z,14.70
2023-05-07T23:11:39.300Z,14.80
2023-05-07T23:14:28.106Z,14.87
2023-05-07T23:17:17.070Z,13.93
2023-05-07T23:20:09.245Z,13.73
2023-05-07T23:22:58.198Z,13.27
2023-05-07T23:25:46.984Z,12.77
2023-05-07T23:28:35.754Z,15.53
2023-05-07T23:31:24.495Z,15.80
2023-05-07T23:34:13.334Z,18.00
2023-05-07T23:37:03.388Z,16.00
2023-05-07T23:39:54.972Z,15.67
2023-05-07T23:42:43.697Z,16.37
2023-05-07T23:45:32.426Z,15.73
2023-05-07T23:48:21.298Z,18.53
2023-05-07T23:51:10.035Z,16.00
2023-05-07T23:54:00.653Z,14.73
2023-05-07T23:56:49.379Z,16.50
2023-05-07T23:59:38.077Z,14.90
